XAAA weather

Zhetygen Airport
Iliysk, Almaty Region, Kazakhstan

Public forecast

Using degrees Celsius for public forecast. Weather courtesy of forecast.io.

METAR (pilot weather report)

Closest report is Almaty Airport, 23.1 nm (42.8 km) S. Retrieved 2019/03/18 17:00 UTC (16 minutes ago):

UAAA 181700Z 25006MPS 9999 SCT100 03/M05 Q1011 R88/65D NOSIG

TAF (pilot weather forecast)

Closest forecast is Almaty Airport, 23.1 nm (42.8 km) S. Retrieved 2019/03/18 12:18 UTC (5 hours ago):

TAF TAF UAAA 181100Z 1812/1912 33005MPS 3100 BR FU SCT050CB BKN100 TX12/1908Z TNM00/1901Z TEMPO 1813/1816 27005MPS 1000 TEMPO 1816/1903 24004MPS 0700 FU BECMG 1905/1906 9999 NSW